KBMC

Brigham City Airport

Brigham City, Utah, USA
METAR KBMC 230835Z AUTO 02003KT 10SM OVC100 14/08 A2994 RMK AO1 T01390079
Observed Flight Rules
May-23 @ 08:35 UTC (6 minutes ago) Visual Flight Rules
Wind Visibility Clouds
20° at 3 knots 10 miles
  • Overcast at 10,000' AGL
Temperatures Readings
Current 14°C / 57°F
Dewpoint 8°C / 46°F
Humidity 67%
Altimeter 29.94" Hg
Pressure 1014 hPa
Elevation 1288
METAR KBMC 230835Z AUTO 02003KT 10SM OVC100 14/08 A2994 RMK AO1 T01390079
Observed Flight Rules
May-23 @ 08:35 UTC
(6 minutes ago)
VFR
Wind Visibility
20° at 3 knots 10 miles
Clouds
  • Overcast at 10,000' AGL
Temperature Dewpoint
14°C / 57°F 8°C / 46°F
Humidity Altimeter Pressure
67% 29.94" Hg 1014 hPa